Time;durP1;ratioP1;P1;durP2;ratioP2;P2;SDS_P1;SDS_P2;PMS_P1;PMS_P2;Temp;Humidity;BMP_temperature;BMP_pressure;BME280_temperature;BME280_humidity;BME280_pressure;Samples;Min_cycle;Max_cycle;Signal;HPM_P1;HPM_P2
2022/04/05 00:02:15;;;;;;;9.83;8.93;;;7.20;78.90;;;;;;6214358;23;20385;-86
2022/04/05 00:04:41;;;;;;;8.80;7.90;;;7.10;78.80;;;;;;6213810;23;20389;-87
2022/04/05 00:07:08;;;;;;;9.27;8.17;;;7.20;79.20;;;;;;6210403;23;20944;-85
2022/04/05 00:09:36;;;;;;;11.93;8.90;;;7.20;79.60;;;;;;6204884;23;20414;-85
2022/04/05 00:12:03;;;;;;;9.10;8.20;;;7.20;79.40;;;;;;6200848;23;20414;-85
2022/04/05 00:14:30;;;;;;;9.50;8.60;;;7.20;79.00;;;;;;6198527;23;20448;-85
2022/04/05 00:16:57;;;;;;;9.90;8.37;;;7.20;79.10;;;;;;6193850;23;20670;-84
2022/04/05 00:22:08;;;;;;;9.10;8.20;;;7.20;79.00;;;;;;6198034;23;20465;-84
2022/04/05 00:24:36;;;;;;;9.37;8.10;;;7.20;78.90;;;;;;6198794;23;20757;-83
2022/04/05 00:27:03;;;;;;;8.60;7.80;;;7.20;79.00;;;;;;6194074;23;20414;-84
2022/04/05 00:29:30;;;;;;;9.30;8.50;;;7.20;79.00;;;;;;6192780;23;20413;-84
2022/04/05 00:31:57;;;;;;;8.70;7.80;;;7.20;79.30;;;;;;6198424;23;20420;-85
2022/04/05 00:34:25;;;;;;;8.80;7.90;;;7.30;79.50;;;;;;6195898;23;20433;-84
2022/04/05 00:36:52;;;;;;;10.60;8.80;;;7.30;79.30;;;;;;6192969;23;20410;-84
2022/04/05 00:39:18;;;;;;;8.77;7.70;;;7.40;79.50;;;;;;6195836;23;20474;-84
2022/04/05 00:41:48;;;;;;;9.07;8.10;;;7.40;79.50;;;;;;6197772;23;20403;-84
2022/04/05 00:44:15;;;;;;;10.47;8.87;;;7.40;79.10;;;;;;6203269;23;20406;-85
2022/04/05 00:46:42;;;;;;;9.67;8.73;;;7.40;79.10;;;;;;6191737;23;20409;-86
2022/04/05 00:49:12;;;;;;;9.93;8.53;;;7.40;79.60;;;;;;6191167;23;20484;-85
2022/04/05 00:51:39;;;;;;;9.17;8.17;;;7.40;79.30;;;;;;6199482;23;20374;-85
2022/04/05 00:54:06;;;;;;;8.77;7.87;;;7.40;79.00;;;;;;6209261;23;20610;-87
2022/04/05 00:56:36;;;;;;;9.10;8.20;;;7.40;79.30;;;;;;6191995;23;20408;-85
2022/04/05 00:59:06;;;;;;;9.53;8.53;;;7.40;79.20;;;;;;6187926;23;20441;-85
2022/04/05 01:01:33;;;;;;;9.40;8.50;;;7.40;79.30;;;;;;6189771;23;20466;-85
2022/04/05 01:04:01;;;;;;;9.67;8.67;;;7.30;79.60;;;;;;6198170;23;20404;-83
2022/04/05 01:06:30;;;;;;;8.23;7.50;;;7.40;79.60;;;;;;6211880;23;20408;-83
2022/04/05 01:08:57;;;;;;;9.50;8.47;;;7.40;79.50;;;;;;6209500;23;20438;-84
2022/04/05 01:11:24;;;;;;;9.47;8.47;;;7.40;79.60;;;;;;6209362;23;20658;-86
2022/04/05 01:13:52;;;;;;;8.50;7.80;;;7.40;79.70;;;;;;6202847;23;20410;-84
2022/04/05 01:16:21;;;;;;;7.90;7.10;;;7.40;79.90;;;;;;6198267;23;20402;-85
2022/04/05 01:18:49;;;;;;;8.20;7.40;;;7.30;79.70;;;;;;6194553;23;20406;-84
2022/04/05 01:21:15;;;;;;;10.70;8.00;;;7.30;79.60;;;;;;6194456;23;20412;-84
2022/04/05 01:24:05;;;;;;;7.70;7.00;;;7.30;79.80;;;;;;6196474;23;20409;-85
2022/04/05 01:26:38;;;;;;;12.20;7.97;;;7.30;79.50;;;;;;6196734;23;20492;-85
2022/04/05 01:29:05;;;;;;;9.43;8.40;;;7.30;79.40;;;;;;6201146;23;20443;-85
2022/04/05 01:31:37;;;;;;;9.40;8.50;;;7.30;80.30;;;;;;6199730;23;20402;-85
2022/04/05 01:34:04;;;;;;;8.23;7.33;;;7.30;80.20;;;;;;6192482;23;20382;-85
2022/04/05 01:36:32;;;;;;;8.53;7.63;;;7.30;80.60;;;;;;6191900;23;20423;-86
2022/04/05 01:39:00;;;;;;;8.43;7.63;;;7.30;80.70;;;;;;6192018;23;20414;-84
2022/04/05 01:41:27;;;;;;;10.60;8.50;;;7.30;81.40;;;;;;6191690;23;20401;-85
2022/04/05 01:43:54;;;;;;;9.03;8.13;;;7.30;83.10;;;;;;6192294;23;20471;-86
2022/04/05 01:46:20;;;;;;;9.90;8.90;;;7.30;83.90;;;;;;6192301;23;20412;-86
2022/04/05 01:48:47;;;;;;;9.60;8.03;;;7.20;84.60;;;;;;6191681;23;20412;-84
2022/04/05 01:51:14;;;;;;;9.20;8.40;;;7.10;85.30;;;;;;6190237;23;20413;-85
2022/04/05 01:53:41;;;;;;;8.43;7.63;;;7.00;86.80;;;;;;6190152;23;20424;-85
2022/04/05 01:56:09;;;;;;;10.00;9.10;;;7.00;86.90;;;;;;6190280;23;20441;-85
2022/04/05 01:58:36;;;;;;;9.20;8.30;;;7.00;86.50;;;;;;6195562;23;20440;-86
2022/04/05 02:01:04;;;;;;;8.77;7.90;;;7.00;86.20;;;;;;6200778;23;20410;-82
2022/04/05 02:03:31;;;;;;;8.43;7.60;;;7.00;87.20;;;;;;6206328;23;20480;-81
2022/04/05 02:05:58;;;;;;;9.30;8.33;;;7.00;88.30;;;;;;6197009;23;20468;-83
2022/04/05 02:08:25;;;;;;;10.27;8.80;;;6.90;89.10;;;;;;6193669;23;20436;-84
2022/04/05 02:10:51;;;;;;;10.60;9.53;;;6.90;90.10;;;;;;6193151;23;20440;-83
2022/04/05 02:13:19;;;;;;;11.73;10.53;;;6.80;90.60;;;;;;6192871;23;20415;-83
2022/04/05 02:15:46;;;;;;;10.20;9.30;;;6.70;91.70;;;;;;6193128;23;20433;-83
2022/04/05 02:18:13;;;;;;;10.13;8.10;;;6.70;92.20;;;;;;6206110;23;20409;-81
2022/04/05 02:20:40;;;;;;;11.67;9.27;;;6.60;92.50;;;;;;6208734;23;20525;-83
2022/04/05 02:23:06;;;;;;;9.87;8.87;;;6.50;92.60;;;;;;6194635;23;20402;-83
2022/04/05 02:25:33;;;;;;;10.83;8.40;;;6.50;92.80;;;;;;6193512;23;20420;-84
2022/04/05 02:28:00;;;;;;;8.80;7.90;;;6.50;93.10;;;;;;6193078;23;20413;-83
2022/04/05 02:30:28;;;;;;;11.07;8.83;;;6.50;93.00;;;;;;6193175;23;20421;-83
2022/04/05 02:32:55;;;;;;;10.37;9.30;;;6.50;94.10;;;;;;6192258;23;20725;-82
2022/04/05 02:35:21;;;;;;;8.83;7.93;;;6.50;93.60;;;;;;6191189;23;20456;-83
2022/04/05 02:37:48;;;;;;;9.43;8.50;;;6.50;94.00;;;;;;6190665;23;20405;-83
2022/04/05 02:40:15;;;;;;;9.53;8.53;;;6.50;93.40;;;;;;6192643;23;20437;-82
2022/04/05 02:42:41;;;;;;;9.63;8.63;;;6.50;93.90;;;;;;6198516;23;20409;-84
2022/04/05 02:45:09;;;;;;;11.23;10.20;;;6.50;93.50;;;;;;6202882;23;20417;-82
2022/04/05 02:47:37;;;;;;;9.93;8.93;;;6.50;94.70;;;;;;6208678;23;20460;-80
2022/04/05 02:50:05;;;;;;;10.27;9.37;;;6.50;94.80;;;;;;6202539;23;20434;-82
2022/04/05 02:52:32;;;;;;;10.30;9.20;;;6.50;95.60;;;;;;6198242;23;20739;-84
2022/04/05 02:54:59;;;;;;;9.70;8.50;;;6.50;95.30;;;;;;6193521;23;20463;-81
2022/04/05 02:57:25;;;;;;;10.23;9.07;;;6.40;94.30;;;;;;6193867;23;20440;-83
2022/04/05 02:59:52;;;;;;;9.63;8.73;;;6.40;95.40;;;;;;6194191;23;20426;-82
2022/04/05 03:02:19;;;;;;;9.60;8.70;;;6.40;95.70;;;;;;6192063;23;20417;-81
2022/04/05 03:04:47;;;;;;;10.33;9.33;;;6.30;95.80;;;;;;6191043;23;20416;-83
2022/04/05 03:07:15;;;;;;;11.80;10.00;;;6.30;96.80;;;;;;6197191;23;20406;-82
2022/04/05 03:09:41;;;;;;;9.83;8.43;;;6.20;97.40;;;;;;6209605;23;20465;-81
2022/04/05 03:12:09;;;;;;;11.43;9.77;;;6.30;97.00;;;;;;6198514;23;20409;-83
2022/04/05 03:14:37;;;;;;;9.37;8.37;;;6.30;97.70;;;;;;6192732;23;20411;-83
2022/04/05 03:17:04;;;;;;;10.57;9.60;;;6.30;98.00;;;;;;6194591;23;20400;-83
2022/04/05 03:19:31;;;;;;;10.17;9.17;;;6.30;97.70;;;;;;6206183;23;20418;-81
2022/04/05 03:21:59;;;;;;;10.87;9.70;;;6.30;98.40;;;;;;6206060;23;20401;-81
2022/04/05 03:24:26;;;;;;;9.60;8.80;;;6.20;99.20;;;;;;6212198;23;20390;-80
2022/04/05 03:26:53;;;;;;;8.67;7.77;;;6.30;98.20;;;;;;6205938;23;20417;-81
2022/04/05 03:29:19;;;;;;;12.43;10.53;;;6.30;98.40;;;;;;6211074;23;20433;-81
2022/04/05 03:31:46;;;;;;;10.03;9.10;;;6.30;98.70;;;;;;6199542;23;20406;-84
2022/04/05 03:34:13;;;;;;;10.63;9.53;;;6.30;99.30;;;;;;6194616;23;20435;-84
2022/04/05 03:36:41;;;;;;;11.87;9.50;;;6.20;99.90;;;;;;6193706;23;20979;-83
2022/04/05 03:39:10;;;;;;;10.57;9.47;;;6.10;99.90;;;;;;6192876;23;20425;-82
2022/04/05 03:41:39;;;;;;;12.03;10.00;;;6.00;99.90;;;;;;6192357;23;20413;-81
2022/04/05 03:44:06;;;;;;;12.20;11.00;;;5.90;99.90;;;;;;6193837;23;20416;-84
2022/04/05 03:46:33;;;;;;;11.50;10.40;;;5.90;99.90;;;;;;6194106;23;20405;-84
2022/04/05 03:49:01;;;;;;;11.00;9.90;;;5.90;99.90;;;;;;6193549;23;20430;-83
2022/04/05 03:51:28;;;;;;;11.90;10.67;;;5.90;99.90;;;;;;6192714;23;20413;-84
2022/04/05 03:53:55;;;;;;;11.93;10.73;;;5.90;99.90;;;;;;6192313;23;21060;-84
2022/04/05 03:56:24;;;;;;;11.87;10.67;;;5.80;99.90;;;;;;6193039;23;20721;-84
2022/04/05 03:58:51;;;;;;;12.70;10.70;;;5.90;99.90;;;;;;6191789;23;20401;-84
2022/04/05 04:01:19;;;;;;;13.63;12.27;;;5.80;99.90;;;;;;6194741;23;20409;-84
2022/04/05 04:03:46;;;;;;;12.83;11.17;;;5.90;99.90;;;;;;6192273;23;20415;-84
2022/04/05 04:06:13;;;;;;;15.07;13.47;;;5.80;99.90;;;;;;6206819;23;20444;-81
2022/04/05 04:08:39;;;;;;;13.40;11.60;;;5.80;99.90;;;;;;6208600;23;20404;-83
2022/04/05 04:11:06;;;;;;;10.63;9.53;;;5.80;99.90;;;;;;6199506;23;20420;-83
2022/04/05 04:13:34;;;;;;;12.33;10.33;;;5.80;99.90;;;;;;6212716;23;20392;-83
2022/04/05 04:16:01;;;;;;;13.70;10.30;;;5.90;99.90;;;;;;6214150;23;20454;-82
2022/04/05 04:18:28;;;;;;;12.37;11.00;;;5.90;99.90;;;;;;6214114;23;20453;-81
2022/04/05 04:20:54;;;;;;;12.60;10.00;;;5.80;99.90;;;;;;6213123;23;20421;-81
2022/04/05 04:23:21;;;;;;;14.30;10.50;;;5.90;99.90;;;;;;6207449;23;20405;-82
2022/04/05 04:25:48;;;;;;;9.40;8.27;;;6.00;99.90;;;;;;6188789;23;20410;-82
2022/04/05 04:28:15;;;;;;;9.87;8.87;;;6.00;99.90;;;;;;6187494;23;20413;-84
2022/04/05 04:30:43;;;;;;;11.07;9.57;;;5.90;99.90;;;;;;6198532;23;20424;-82
2022/04/05 04:33:10;;;;;;;10.60;9.50;;;5.90;99.90;;;;;;6199507;23;20420;-84
2022/04/05 04:35:39;;;;;;;14.07;9.83;;;5.90;99.90;;;;;;6200147;23;20755;-83
2022/04/05 04:38:07;;;;;;;13.37;11.10;;;5.90;99.90;;;;;;6199000;23;20410;-81
2022/04/05 04:40:33;;;;;;;11.60;9.63;;;5.90;99.90;;;;;;6204569;23;20435;-81
2022/04/05 04:43:00;;;;;;;10.97;9.07;;;5.80;99.90;;;;;;6202526;23;20406;-83
2022/04/05 04:45:28;;;;;;;11.67;10.27;;;5.90;99.90;;;;;;6196891;23;20402;-82
2022/04/05 04:47:56;;;;;;;14.50;9.83;;;5.90;99.90;;;;;;6196710;23;20413;-82
2022/04/05 04:50:23;;;;;;;10.83;9.77;;;5.90;99.90;;;;;;6199299;23;20468;-82
2022/04/05 04:52:50;;;;;;;10.40;9.30;;;5.90;99.90;;;;;;6191164;23;20405;-83
2022/04/05 04:55:17;;;;;;;14.37;9.67;;;5.90;99.90;;;;;;6193099;23;20416;-83
2022/04/05 04:57:44;;;;;;;12.93;10.33;;;5.90;99.90;;;;;;6191291;23;20409;-82
2022/04/05 05:00:11;;;;;;;10.60;8.87;;;5.90;99.90;;;;;;6197474;23;20438;-82
2022/04/05 05:02:44;;;;;;;13.33;9.80;;;5.90;99.90;;;;;;6210526;23;20404;-83
2022/04/05 05:05:14;;;;;;;13.00;10.23;;;5.90;99.90;;;;;;6192888;23;20402;-83
2022/04/05 05:07:41;;;;;;;11.93;10.40;;;5.80;99.90;;;;;;6191777;23;20431;-83
2022/04/05 05:10:08;;;;;;;13.00;10.33;;;5.80;99.90;;;;;;6191421;23;20426;-82
2022/04/05 05:12:35;;;;;;;11.43;10.20;;;5.80;99.90;;;;;;6196758;23;20413;-81
2022/04/05 05:15:02;;;;;;;11.43;10.00;;;5.70;99.90;;;;;;6205594;23;20752;-82
2022/04/05 05:17:29;;;;;;;12.10;10.90;;;5.70;99.90;;;;;;6197609;23;20445;-83
2022/04/05 05:19:56;;;;;;;13.40;10.90;;;5.70;99.90;;;;;;6195456;23;20428;-82
2022/04/05 05:22:24;;;;;;;14.30;11.40;;;5.70;99.90;;;;;;6191704;23;20393;-82
2022/04/05 05:24:56;;;;;;;17.10;14.10;;;5.70;99.90;;;;;;6186962;23;20409;-83
2022/04/05 05:27:23;;;;;;;12.33;10.73;;;5.60;99.90;;;;;;6185969;23;20412;-83
2022/04/05 05:29:50;;;;;;;12.07;10.33;;;5.60;99.90;;;;;;6193702;23;20442;-85
2022/04/05 05:32:17;;;;;;;12.03;10.20;;;5.70;99.90;;;;;;6189870;23;20394;-84
2022/04/05 05:34:43;;;;;;;12.07;10.63;;;5.70;99.90;;;;;;6190088;23;20451;-83
2022/04/05 05:37:10;;;;;;;12.00;10.80;;;5.60;99.90;;;;;;6208357;23;20484;-83
2022/04/05 05:39:38;;;;;;;11.80;10.70;;;5.60;99.90;;;;;;6210521;23;20452;-84
2022/04/05 05:42:06;;;;;;;12.47;10.83;;;5.60;99.90;;;;;;6209822;23;20436;-85
2022/04/05 05:44:34;;;;;;;11.90;10.60;;;5.60;99.90;;;;;;6206825;23;20499;-85
2022/04/05 05:47:01;;;;;;;12.57;9.50;;;5.60;99.90;;;;;;6193709;23;20408;-82
2022/04/05 05:49:28;;;;;;;12.23;10.10;;;5.60;99.90;;;;;;6191754;23;20519;-84
2022/04/05 05:51:54;;;;;;;12.10;10.47;;;5.60;99.90;;;;;;6190873;23;20409;-83
2022/04/05 05:54:21;;;;;;;12.60;10.13;;;5.60;99.90;;;;;;6190604;23;20411;-82
2022/04/05 05:56:49;;;;;;;17.83;11.47;;;5.60;99.90;;;;;;6190670;23;20440;-83
2022/04/05 05:59:16;;;;;;;10.40;9.40;;;5.60;99.90;;;;;;6189975;23;20443;-82
2022/04/05 06:01:43;;;;;;;12.53;10.90;;;5.60;99.90;;;;;;6196382;23;20400;-81
2022/04/05 06:04:09;;;;;;;13.57;11.00;;;5.60;99.90;;;;;;6211828;23;20495;-82
2022/04/05 06:06:36;;;;;;;11.90;10.70;;;5.60;99.90;;;;;;6212050;23;20428;-84
2022/04/05 06:09:03;;;;;;;14.50;11.73;;;5.60;99.90;;;;;;6211203;23;20431;-81
2022/04/05 06:11:30;;;;;;;14.70;12.47;;;5.60;99.90;;;;;;6204127;23;20404;-83
2022/04/05 06:13:58;;;;;;;12.50;11.17;;;5.60;99.90;;;;;;6199609;23;20412;-83
2022/04/05 06:16:24;;;;;;;11.63;10.53;;;5.70;99.90;;;;;;6194867;23;20455;-83
2022/04/05 06:18:51;;;;;;;11.20;10.10;;;5.70;99.90;;;;;;6195274;23;20415;-82
2022/04/05 06:21:19;;;;;;;11.63;10.17;;;5.70;99.90;;;;;;6194460;23;21053;-83
2022/04/05 06:23:46;;;;;;;11.30;9.60;;;5.70;99.90;;;;;;6195356;23;20802;-82
2022/04/05 06:26:13;;;;;;;13.40;10.73;;;5.80;99.90;;;;;;6200026;23;20398;-82
2022/04/05 06:28:40;;;;;;;15.10;11.53;;;5.80;99.90;;;;;;6207708;23;20465;-83
2022/04/05 06:31:09;;;;;;;11.17;10.07;;;5.80;99.90;;;;;;6202513;23;20420;-82
2022/04/05 06:33:36;;;;;;;14.90;10.73;;;5.90;99.90;;;;;;6205098;23;20430;-83
2022/04/05 06:36:03;;;;;;;12.60;10.53;;;5.80;99.90;;;;;;6194566;23;20449;-84
2022/04/05 06:38:29;;;;;;;11.93;10.73;;;5.80;99.90;;;;;;6193451;23;20402;-82
2022/04/05 06:40:57;;;;;;;10.73;9.73;;;5.80;99.90;;;;;;6194836;23;20437;-83
2022/04/05 06:43:25;;;;;;;11.20;9.27;;;5.80;99.90;;;;;;6202915;23;20412;-84
2022/04/05 06:45:52;;;;;;;10.97;9.40;;;5.90;99.90;;;;;;6198158;23;20423;-84
2022/04/05 06:48:20;;;;;;;12.00;10.47;;;6.00;99.90;;;;;;6199019;23;20411;-82
2022/04/05 06:50:49;;;;;;;10.63;9.57;;;5.90;99.90;;;;;;6208593;23;20428;-83
2022/04/05 06:53:16;;;;;;;10.90;9.80;;;5.90;99.90;;;;;;6204608;23;20436;-83
2022/04/05 06:55:42;;;;;;;12.80;9.93;;;6.00;99.90;;;;;;6200356;23;20417;-84
2022/04/05 06:58:09;;;;;;;11.17;9.20;;;6.00;99.90;;;;;;6202951;23;20408;-83
2022/04/05 07:00:37;;;;;;;10.93;8.47;;;6.00;99.90;;;;;;6199745;23;20440;-83
2022/04/05 07:03:05;;;;;;;10.13;9.20;;;6.00;99.90;;;;;;6192546;23;20460;-83
2022/04/05 07:05:33;;;;;;;11.63;9.73;;;6.00;99.90;;;;;;6190034;23;20402;-83
2022/04/05 07:08:00;;;;;;;10.80;9.70;;;6.00;99.90;;;;;;6191708;23;20967;-83
2022/04/05 07:10:27;;;;;;;10.50;9.40;;;6.10;99.90;;;;;;6192577;23;20456;-83
2022/04/05 07:12:54;;;;;;;11.60;9.77;;;6.10;99.90;;;;;;6204904;23;20407;-82
2022/04/05 07:15:20;;;;;;;9.90;8.47;;;6.10;99.90;;;;;;6205437;23;20477;-83
2022/04/05 07:17:47;;;;;;;11.10;9.30;;;6.10;99.90;;;;;;6203586;23;20448;-82
2022/04/05 07:20:14;;;;;;;9.37;8.27;;;6.10;99.90;;;;;;6194825;23;20429;-83
2022/04/05 07:22:48;;;;;;;10.03;9.00;;;6.10;99.90;;;;;;6192113;23;20398;-83
2022/04/05 07:25:15;;;;;;;13.83;8.73;;;6.20;99.90;;;;;;6191999;23;20398;-83
2022/04/05 07:27:44;;;;;;;14.70;8.60;;;6.20;99.90;;;;;;6192120;23;20408;-83
2022/04/05 07:30:11;;;;;;;16.30;9.63;;;6.20;99.90;;;;;;6192130;23;20463;-83
2022/04/05 07:32:39;;;;;;;11.10;9.27;;;6.30;99.90;;;;;;6191948;23;20739;-82
2022/04/05 07:35:06;;;;;;;10.60;9.60;;;6.30;99.90;;;;;;6193808;23;20409;-82
2022/04/05 07:37:33;;;;;;;10.03;9.03;;;6.30;99.90;;;;;;6208450;23;20448;-81
2022/04/05 07:40:03;;;;;;;11.93;9.73;;;6.40;99.90;;;;;;6198197;23;20441;-82
2022/04/05 07:42:30;;;;;;;9.87;8.87;;;6.40;99.90;;;;;;6189733;23;20410;-83
2022/04/05 07:44:57;;;;;;;13.80;9.50;;;6.50;99.90;;;;;;6191118;23;20421;-82
2022/04/05 07:47:24;;;;;;;10.30;8.27;;;6.50;99.90;;;;;;6190991;23;20404;-83
2022/04/05 07:49:50;;;;;;;12.67;9.20;;;6.50;99.90;;;;;;6196160;23;20413;-82
2022/04/05 07:52:17;;;;;;;10.70;8.70;;;6.40;99.90;;;;;;6212454;23;20399;-81
2022/04/05 07:54:44;;;;;;;9.73;8.80;;;6.40;99.90;;;;;;6201056;23;20430;-82
2022/04/05 07:57:13;;;;;;;9.77;8.67;;;6.60;99.90;;;;;;6212603;23;20443;-81
2022/04/05 07:59:40;;;;;;;8.90;8.00;;;6.60;99.90;;;;;;6196810;23;20472;-83
2022/04/05 08:02:07;;;;;;;12.07;8.47;;;6.70;99.90;;;;;;6200571;23;20406;-82
2022/04/05 08:04:33;;;;;;;9.93;8.87;;;6.60;99.90;;;;;;6206807;23;20422;-83
2022/04/05 08:07:01;;;;;;;9.40;8.37;;;6.70;99.90;;;;;;6201308;23;20493;-83
2022/04/05 08:09:27;;;;;;;10.97;8.60;;;6.70;99.90;;;;;;6200677;23;20418;-82
2022/04/05 08:11:54;;;;;;;8.93;8.00;;;6.80;99.90;;;;;;6211702;23;20398;-82
2022/04/05 08:14:27;;;;;;;15.50;10.13;;;6.90;99.90;;;;;;6212485;23;20433;-83
2022/04/05 08:16:55;;;;;;;10.37;9.37;;;7.00;99.90;;;;;;6208949;23;20473;-83
2022/04/05 08:19:21;;;;;;;8.97;8.07;;;7.00;99.90;;;;;;6205925;23;20414;-83
2022/04/05 08:21:48;;;;;;;9.07;7.77;;;7.00;99.90;;;;;;6211341;23;20393;-83
2022/04/05 08:24:15;;;;;;;10.10;7.60;;;7.10;99.90;;;;;;6210429;23;20404;-81
2022/04/05 08:26:41;;;;;;;9.10;8.20;;;7.10;99.90;;;;;;6209825;23;20404;-82
2022/04/05 08:29:08;;;;;;;11.03;9.30;;;7.10;99.90;;;;;;6208775;23;20432;-82
2022/04/05 08:31:36;;;;;;;10.43;8.70;;;7.20;99.90;;;;;;6210333;23;20406;-82
2022/04/05 08:34:03;;;;;;;11.43;8.43;;;7.20;99.90;;;;;;6200717;23;20412;-83
2022/04/05 08:36:29;;;;;;;9.60;8.20;;;7.30;99.90;;;;;;6188497;23;20441;-83
2022/04/05 08:38:56;;;;;;;12.43;8.50;;;7.20;99.90;;;;;;6193179;23;20434;-82
2022/04/05 08:41:26;;;;;;;9.83;8.83;;;7.30;99.90;;;;;;6198027;23;20412;-85
2022/04/05 08:43:53;;;;;;;13.17;8.73;;;7.30;99.90;;;;;;6192556;23;20438;-83
2022/04/05 08:46:21;;;;;;;9.10;8.00;;;7.30;99.90;;;;;;6193651;23;20409;-83
2022/04/05 08:48:52;;;;;;;11.07;7.60;;;7.30;99.90;;;;;;6193844;23;20887;-83
2022/04/05 08:51:19;;;;;;;10.13;9.00;;;7.40;99.90;;;;;;6193819;23;20395;-83
2022/04/05 08:53:45;;;;;;;9.83;7.80;;;7.40;99.90;;;;;;6197359;23;20402;-82
2022/04/05 08:56:13;;;;;;;10.70;7.77;;;7.50;99.90;;;;;;6208862;23;20436;-84
2022/04/05 08:58:40;;;;;;;10.57;8.30;;;7.50;99.90;;;;;;6203127;23;20476;-77
2022/04/05 09:01:09;;;;;;;8.67;7.80;;;7.60;99.90;;;;;;6191495;23;20767;-77
2022/04/05 09:03:36;;;;;;;9.73;8.37;;;7.60;99.90;;;;;;6192978;23;20417;-84
2022/04/05 09:06:26;;;;;;;9.10;8.20;;;7.70;99.90;;;;;;6193577;23;20406;-83
2022/04/05 09:08:55;;;;;;;9.40;7.60;;;7.70;99.90;;;;;;6194055;23;20907;-84
2022/04/05 09:11:21;;;;;;;8.30;7.50;;;7.70;99.90;;;;;;6192496;23;20622;-84
2022/04/05 09:13:57;;;;;;;10.23;7.20;;;7.80;99.90;;;;;;6193334;23;20402;-83
2022/04/05 09:16:28;;;;;;;8.50;7.33;;;7.90;99.90;;;;;;6204993;23;20401;-83
2022/04/05 09:18:55;;;;;;;9.30;7.30;;;8.00;99.90;;;;;;6197715;23;20422;-83
2022/04/05 09:21:21;;;;;;;8.23;7.43;;;8.10;99.90;;;;;;6194920;23;20410;-84
2022/04/05 09:23:52;;;;;;;10.20;6.30;;;8.10;99.90;;;;;;6198108;23;20402;-83
2022/04/05 09:26:20;;;;;;;7.67;6.80;;;8.10;99.90;;;;;;6212010;23;20445;-82
2022/04/05 09:28:48;;;;;;;17.90;7.53;;;8.20;99.90;;;;;;6206859;23;20402;-83
2022/04/05 09:31:18;;;;;;;8.97;8.03;;;8.30;99.90;;;;;;6193144;23;20420;-82
2022/04/05 09:34:03;;;;;;;7.63;6.83;;;8.50;99.90;;;;;;6193191;23;20445;-83
2022/04/05 09:36:33;;;;;;;6.87;6.17;;;8.60;99.90;;;;;;6193023;23;20390;-84
2022/04/05 09:39:15;;;;;;;9.80;7.10;;;8.70;99.90;;;;;;6193555;23;20433;-83
2022/04/05 09:41:41;;;;;;;8.13;7.10;;;8.80;99.90;;;;;;6201580;23;20396;-84
2022/04/05 09:44:08;;;;;;;7.97;7.17;;;8.90;99.90;;;;;;6203885;23;20883;-83
2022/04/05 09:46:36;;;;;;;7.80;6.97;;;9.00;99.90;;;;;;6202667;23;20402;-84
2022/04/05 09:49:11;;;;;;;6.57;5.93;;;9.20;99.90;;;;;;6204789;23;20472;-84
2022/04/05 09:51:43;;;;;;;7.87;7.07;;;9.20;99.90;;;;;;6194498;23;20419;-84
2022/04/05 09:54:22;;;;;;;7.10;5.53;;;9.10;99.90;;;;;;6206032;23;20363;-82
2022/04/05 09:56:50;;;;;;;7.20;6.57;;;9.10;99.90;;;;;;6204653;23;20417;-84
2022/04/05 09:59:18;;;;;;;6.63;4.73;;;9.20;99.90;;;;;;6195299;23;20472;-83
2022/04/05 10:01:46;;;;;;;9.10;6.70;;;9.20;99.90;;;;;;6196530;23;20390;-83
2022/04/05 10:04:15;;;;;;;6.70;5.93;;;9.30;99.90;;;;;;6203307;23;20480;-83
2022/04/05 10:06:46;;;;;;;6.37;5.77;;;9.30;99.90;;;;;;6211083;23;20405;-81
2022/04/05 10:09:14;;;;;;;7.57;6.37;;;9.30;99.90;;;;;;6208503;23;20425;-84
2022/04/05 10:11:43;;;;;;;9.50;7.13;;;9.20;99.90;;;;;;6205865;23;20446;-81
2022/04/05 10:14:12;;;;;;;7.27;6.57;;;9.20;99.90;;;;;;6211650;23;20402;-83
2022/04/05 10:16:39;;;;;;;8.03;6.93;;;9.20;99.90;;;;;;6207061;23;20410;-83
2022/04/05 10:19:07;;;;;;;6.57;5.83;;;9.30;99.90;;;;;;6200114;23;20450;-85
2022/04/05 10:21:37;;;;;;;7.07;6.37;;;9.30;99.90;;;;;;6194830;23;20405;-82
2022/04/05 10:24:05;;;;;;;8.27;6.53;;;9.20;99.90;;;;;;6194765;23;20414;-83
2022/04/05 10:26:35;;;;;;;8.03;6.80;;;9.10;99.90;;;;;;6197999;23;20410;-84
2022/04/05 10:29:06;;;;;;;7.30;6.60;;;9.10;99.90;;;;;;6205644;23;20436;-83
2022/04/05 10:31:44;;;;;;;7.07;5.53;;;9.10;99.90;;;;;;6196344;23;20478;-84
2022/04/05 10:34:19;;;;;;;8.90;6.83;;;9.10;99.90;;;;;;6193663;23;20713;-84
2022/04/05 10:37:12;;;;;;;8.10;6.60;;;9.20;99.90;;;;;;6193397;23;20488;-84
2022/04/05 10:39:39;;;;;;;7.93;7.13;;;9.10;99.90;;;;;;6194903;23;20417;-83
2022/04/05 10:42:20;;;;;;;8.07;7.30;;;9.10;99.90;;;;;;6200848;23;20406;-84
2022/04/05 10:44:53;;;;;;;8.30;7.53;;;9.00;99.90;;;;;;6195099;23;20378;-84
2022/04/05 10:47:21;;;;;;;9.47;8.57;;;9.00;99.90;;;;;;6193881;23;20408;-83
2022/04/05 10:49:49;;;;;;;8.10;7.30;;;9.00;99.90;;;;;;6195786;23;20430;-83
2022/04/05 10:52:18;;;;;;;7.97;7.17;;;8.90;99.90;;;;;;6193430;23;20474;-83
2022/04/05 10:54:47;;;;;;;8.47;6.20;;;8.90;99.90;;;;;;6194368;23;20405;-84
2022/04/05 10:57:39;;;;;;;8.20;7.33;;;9.00;99.90;;;;;;6193215;23;20805;-84
2022/04/05 11:00:11;;;;;;;6.23;5.63;;;9.00;99.90;;;;;;6194157;23;20458;-83
2022/04/05 11:02:43;;;;;;;8.47;6.20;;;9.10;99.90;;;;;;6195478;23;20391;-82
2022/04/05 11:05:42;;;;;;;8.20;6.13;;;9.20;99.90;;;;;;6194475;23;20477;-82
2022/04/05 11:08:27;;;;;;;8.00;6.50;;;9.20;99.90;;;;;;6200415;23;20390;-83
2022/04/05 11:10:55;;;;;;;7.87;6.63;;;9.30;99.90;;;;;;6198946;23;21027;-84
2022/04/05 11:13:33;;;;;;;9.60;6.53;;;9.40;99.90;;;;;;6194025;23;20397;-84
2022/04/05 11:16:03;;;;;;;7.73;6.47;;;9.50;99.90;;;;;;6205916;23;20382;-84
2022/04/05 11:18:33;;;;;;;6.73;6.10;;;9.60;99.90;;;;;;6205058;23;20533;-83
2022/04/05 11:21:01;;;;;;;8.53;6.03;;;9.70;99.90;;;;;;6191374;23;20779;-83
2022/04/05 11:23:48;;;;;;;6.37;5.77;;;9.70;99.90;;;;;;6194167;23;21106;-84
2022/04/05 11:26:27;;;;;;;9.20;7.90;;;9.60;99.90;;;;;;6201446;23;20383;-83
2022/04/05 11:28:55;;;;;;;7.20;6.00;;;9.70;99.90;;;;;;6211353;23;20453;-82
2022/04/05 11:31:35;;;;;;;6.60;5.33;;;9.70;99.90;;;;;;6193564;23;20401;-84
2022/04/05 11:34:05;;;;;;;7.17;5.50;;;9.80;99.90;;;;;;6193291;23;20394;-82
2022/04/05 11:36:42;;;;;;;6.80;5.90;;;9.80;99.90;;;;;;6192463;23;20410;-82
2022/04/05 11:39:14;;;;;;;6.93;4.77;;;9.90;99.90;;;;;;6190191;23;20445;-83
2022/04/05 11:41:40;;;;;;;10.00;6.57;;;10.00;99.90;;;;;;6191107;23;20772;-83
2022/04/05 11:44:07;;;;;;;7.00;5.37;;;10.10;99.90;;;;;;6190831;23;20410;-83
2022/04/05 11:46:38;;;;;;;4.93;4.20;;;10.20;99.90;;;;;;6190469;23;20397;-84
2022/04/05 11:49:07;;;;;;;6.70;5.23;;;10.20;99.90;;;;;;6199422;23;20482;-82
2022/04/05 11:51:36;;;;;;;5.47;4.97;;;10.20;99.90;;;;;;6209403;23;20418;-81
2022/04/05 11:54:05;;;;;;;6.13;5.43;;;10.20;99.90;;;;;;6212454;23;20401;-82
2022/04/05 11:56:34;;;;;;;5.03;4.53;;;10.40;99.90;;;;;;6212943;23;20405;-82
2022/04/05 11:59:02;;;;;;;5.77;5.23;;;10.20;99.90;;;;;;6210294;23;20452;-82
2022/04/05 12:01:30;;;;;;;5.00;4.50;;;10.30;99.90;;;;;;6208851;23;20395;-83
2022/04/05 12:04:00;;;;;;;6.33;5.73;;;10.20;99.90;;;;;;6198024;23;20405;-84
2022/04/05 12:06:29;;;;;;;5.47;4.97;;;10.20;99.90;;;;;;6200747;23;20869;-82
2022/04/05 12:08:58;;;;;;;5.53;4.50;;;10.30;99.90;;;;;;6212436;23;20430;-82
2022/04/05 12:11:26;;;;;;;5.20;4.70;;;10.40;99.90;;;;;;6212051;23;20397;-83
2022/04/05 12:13:55;;;;;;;5.40;4.90;;;10.40;99.90;;;;;;6209352;23;20403;-83
2022/04/05 12:16:22;;;;;;;4.50;4.10;;;10.60;99.90;;;;;;6196704;23;20406;-83
2022/04/05 12:18:51;;;;;;;4.30;4.00;;;10.50;99.90;;;;;;6189872;23;20493;-83
2022/04/05 12:21:21;;;;;;;6.23;4.47;;;10.40;99.90;;;;;;6190305;23;20417;-84
2022/04/05 12:23:50;;;;;;;4.83;4.43;;;10.50;99.90;;;;;;6194975;23;20404;-82
2022/04/05 12:26:20;;;;;;;3.97;3.57;;;10.60;99.90;;;;;;6210775;23;20401;-83
2022/04/05 12:28:49;;;;;;;4.40;4.00;;;10.60;99.90;;;;;;6205202;23;20402;-83
2022/04/05 12:31:17;;;;;;;5.77;4.63;;;10.60;99.90;;;;;;6207609;23;20410;-83
2022/04/05 12:33:54;;;;;;;3.63;3.33;;;10.70;99.90;;;;;;6205303;23;20417;-82
2022/04/05 12:36:23;;;;;;;6.10;3.73;;;10.80;99.90;;;;;;6204691;23;20457;-83
2022/04/05 12:38:51;;;;;;;4.63;4.30;;;10.90;99.90;;;;;;6210868;23;20429;-82
2022/04/05 12:41:20;;;;;;;5.40;4.00;;;10.90;99.90;;;;;;6202528;23;20406;-84
2022/04/05 12:44:09;;;;;;;5.07;4.30;;;10.90;99.90;;;;;;6194456;23;20814;-85
2022/04/05 12:46:41;;;;;;;4.60;4.20;;;10.80;99.90;;;;;;6196094;23;20386;-85
2022/04/05 12:49:15;;;;;;;4.90;4.30;;;10.80;99.90;;;;;;6197445;23;20430;-84
2022/04/05 12:51:43;;;;;;;5.03;4.40;;;10.90;99.90;;;;;;6195686;23;20401;-84
2022/04/05 12:54:28;;;;;;;4.60;4.20;;;10.90;99.90;;;;;;6195555;23;20402;-84
2022/04/05 12:56:54;;;;;;;4.80;4.00;;;11.00;99.90;;;;;;6194612;23;20390;-84
2022/04/05 12:59:27;;;;;;;5.17;4.40;;;11.00;99.90;;;;;;6199405;23;20446;-83